sensor_id;sensor_type;location;lat;lon;timestamp;pressure;altitude;pressure_sealevel;temperature
11926;BMP180;6022;48.768;18.608;2022-09-09T00:03:59;98136.25;;;19.03
11926;BMP180;6022;48.768;18.608;2022-09-09T00:06:45;98135.88;;;18.91
11926;BMP180;6022;48.768;18.608;2022-09-09T00:09:28;98147.69;;;18.76
11926;BMP180;6022;48.768;18.608;2022-09-09T00:12:12;98150.38;;;18.66
11926;BMP180;6022;48.768;18.608;2022-09-09T00:14:54;98146.25;;;18.48
11926;BMP180;6022;48.768;18.608;2022-09-09T00:17:36;98151.69;;;18.45
11926;BMP180;6022;48.768;18.608;2022-09-09T00:20:29;98155.47;;;18.33
11926;BMP180;6022;48.768;18.608;2022-09-09T00:23:17;98165.59;;;18.35
11926;BMP180;6022;48.768;18.608;2022-09-09T00:31:36;98161.03;;;18.46
11926;BMP180;6022;48.768;18.608;2022-09-09T00:34:31;98158.44;;;18.46
11926;BMP180;6022;48.768;18.608;2022-09-09T00:36:59;98165.34;;;18.46
11926;BMP180;6022;48.768;18.608;2022-09-09T00:39:46;98168.88;;;18.45
11926;BMP180;6022;48.768;18.608;2022-09-09T00:48:27;98165.84;;;18.49
11926;BMP180;6022;48.768;18.608;2022-09-09T00:51:33;98167.16;;;18.53
11926;BMP180;6022;48.768;18.608;2022-09-09T00:57:29;98167.75;;;18.47
11926;BMP180;6022;48.768;18.608;2022-09-09T01:06:30;98166.34;;;18.27
11926;BMP180;6022;48.768;18.608;2022-09-09T01:20:05;98172.25;;;18.03
11926;BMP180;6022;48.768;18.608;2022-09-09T01:28:47;98179.94;;;17.68
11926;BMP180;6022;48.768;18.608;2022-09-09T01:31:21;98187.94;;;17.65
11926;BMP180;6022;48.768;18.608;2022-09-09T01:33:50;98183.09;;;17.62
11926;BMP180;6022;48.768;18.608;2022-09-09T01:38:56;98188.75;;;17.66
11926;BMP180;6022;48.768;18.608;2022-09-09T01:41:24;98181.19;;;17.64
11926;BMP180;6022;48.768;18.608;2022-09-09T01:43:53;98182.00;;;17.65
11926;BMP180;6022;48.768;18.608;2022-09-09T01:46:22;98178.34;;;17.67
11926;BMP180;6022;48.768;18.608;2022-09-09T01:48:53;98182.66;;;17.67
11926;BMP180;6022;48.768;18.608;2022-09-09T01:51:22;98180.06;;;17.67
11926;BMP180;6022;48.768;18.608;2022-09-09T01:53:50;98184.56;;;17.65
11926;BMP180;6022;48.768;18.608;2022-09-09T02:02:19;98187.78;;;17.49
11926;BMP180;6022;48.768;18.608;2022-09-09T02:04:54;98196.94;;;17.52
11926;BMP180;6022;48.768;18.608;2022-09-09T02:07:46;98192.91;;;17.49
11926;BMP180;6022;48.768;18.608;2022-09-09T02:10:28;98198.03;;;17.49
11926;BMP180;6022;48.768;18.608;2022-09-09T02:13:13;98200.06;;;17.46
11926;BMP180;6022;48.768;18.608;2022-09-09T02:16:01;98201.84;;;17.45
11926;BMP180;6022;48.768;18.608;2022-09-09T02:21:31;98205.66;;;17.41
11926;BMP180;6022;48.768;18.608;2022-09-09T02:24:06;98200.13;;;17.37
11926;BMP180;6022;48.768;18.608;2022-09-09T02:26:41;98209.19;;;17.31
11926;BMP180;6022;48.768;18.608;2022-09-09T02:29:17;98208.69;;;17.28
11926;BMP180;6022;48.768;18.608;2022-09-09T02:31:49;98207.88;;;17.27
11926;BMP180;6022;48.768;18.608;2022-09-09T02:34:20;98219.50;;;17.22
11926;BMP180;6022;48.768;18.608;2022-09-09T02:36:49;98223.56;;;17.15
11926;BMP180;6022;48.768;18.608;2022-09-09T02:39:18;98220.91;;;17.07
11926;BMP180;6022;48.768;18.608;2022-09-09T02:41:46;98222.28;;;17.02
11926;BMP180;6022;48.768;18.608;2022-09-09T02:44:17;98229.81;;;17.03
11926;BMP180;6022;48.768;18.608;2022-09-09T02:55:43;98238.72;;;16.99
11926;BMP180;6022;48.768;18.608;2022-09-09T02:58:17;98245.22;;;16.94
11926;BMP180;6022;48.768;18.608;2022-09-09T03:00:51;98239.72;;;16.89
11926;BMP180;6022;48.768;18.608;2022-09-09T03:03:20;98241.09;;;16.83
11926;BMP180;6022;48.768;18.608;2022-09-09T03:05:49;98249.03;;;16.80
11926;BMP180;6022;48.768;18.608;2022-09-09T03:08:17;98257.69;;;16.79
11926;BMP180;6022;48.768;18.608;2022-09-09T03:10:44;98246.91;;;16.76
11926;BMP180;6022;48.768;18.608;2022-09-09T03:13:12;98243.81;;;16.72
11926;BMP180;6022;48.768;18.608;2022-09-09T03:15:42;98256.09;;;16.69
11926;BMP180;6022;48.768;18.608;2022-09-09T03:18:10;98254.88;;;16.63
11926;BMP180;6022;48.768;18.608;2022-09-09T03:20:37;98257.19;;;16.57
11926;BMP180;6022;48.768;18.608;2022-09-09T03:23:05;98270.44;;;16.53
11926;BMP180;6022;48.768;18.608;2022-09-09T03:25:32;98260.03;;;16.45
11926;BMP180;6022;48.768;18.608;2022-09-09T03:28:01;98259.38;;;16.43
11926;BMP180;6022;48.768;18.608;2022-09-09T03:30:29;98259.25;;;16.35
11926;BMP180;6022;48.768;18.608;2022-09-09T03:32:57;98262.22;;;16.30
11926;BMP180;6022;48.768;18.608;2022-09-09T03:35:24;98249.69;;;16.27
11926;BMP180;6022;48.768;18.608;2022-09-09T03:37:52;98249.44;;;16.30
11926;BMP180;6022;48.768;18.608;2022-09-09T03:40:22;98254.13;;;16.35
11926;BMP180;6022;48.768;18.608;2022-09-09T03:42:50;98245.91;;;16.31
11926;BMP180;6022;48.768;18.608;2022-09-09T03:45:17;98247.94;;;16.28
11926;BMP180;6022;48.768;18.608;2022-09-09T03:47:45;98256.16;;;16.22
11926;BMP180;6022;48.768;18.608;2022-09-09T03:50:13;98265.16;;;16.17
11926;BMP180;6022;48.768;18.608;2022-09-09T03:52:42;98261.13;;;16.14
11926;BMP180;6022;48.768;18.608;2022-09-09T03:55:10;98269.47;;;16.16
11926;BMP180;6022;48.768;18.608;2022-09-09T03:57:37;98266.69;;;16.19
11926;BMP180;6022;48.768;18.608;2022-09-09T04:00:07;98257.59;;;16.15
11926;BMP180;6022;48.768;18.608;2022-09-09T04:02:35;98250.75;;;16.16
11926;BMP180;6022;48.768;18.608;2022-09-09T04:05:03;98255.75;;;16.17
11926;BMP180;6022;48.768;18.608;2022-09-09T04:07:31;98256.56;;;16.18
11926;BMP180;6022;48.768;18.608;2022-09-09T04:09:59;98255.88;;;16.16
11926;BMP180;6022;48.768;18.608;2022-09-09T04:12:27;98258.56;;;16.14
11926;BMP180;6022;48.768;18.608;2022-09-09T04:14:54;98262.31;;;16.10
11926;BMP180;6022;48.768;18.608;2022-09-09T04:17:21;98262.44;;;16.09
11926;BMP180;6022;48.768;18.608;2022-09-09T04:19:49;98259.91;;;16.09
11926;BMP180;6022;48.768;18.608;2022-09-09T04:22:16;98266.66;;;16.10
11926;BMP180;6022;48.768;18.608;2022-09-09T04:24:44;98262.59;;;16.07
11926;BMP180;6022;48.768;18.608;2022-09-09T04:27:14;98265.16;;;16.07
11926;BMP180;6022;48.768;18.608;2022-09-09T04:29:41;98263.94;;;16.02
11926;BMP180;6022;48.768;18.608;2022-09-09T04:32:09;98260.84;;;15.98
11926;BMP180;6022;48.768;18.608;2022-09-09T04:34:36;98263.78;;;16.03
11926;BMP180;6022;48.768;18.608;2022-09-09T04:37:04;98258.81;;;16.02
11926;BMP180;6022;48.768;18.608;2022-09-09T04:39:31;98256.13;;;16.03
11926;BMP180;6022;48.768;18.608;2022-09-09T04:41:58;98254.53;;;16.12
11926;BMP180;6022;48.768;18.608;2022-09-09T04:44:26;98244.78;;;16.15
11926;BMP180;6022;48.768;18.608;2022-09-09T04:46:55;98252.00;;;16.21
11926;BMP180;6022;48.768;18.608;2022-09-09T04:49:22;98256.00;;;16.33
11926;BMP180;6022;48.768;18.608;2022-09-09T04:51:49;98250.91;;;16.33
11926;BMP180;6022;48.768;18.608;2022-09-09T04:54:17;98252.09;;;16.38
11926;BMP180;6022;48.768;18.608;2022-09-09T04:56:44;98251.97;;;16.49
11926;BMP180;6022;48.768;18.608;2022-09-09T04:59:11;98257.19;;;16.57
11926;BMP180;6022;48.768;18.608;2022-09-09T05:01:39;98253.94;;;16.64
11926;BMP180;6022;48.768;18.608;2022-09-09T05:04:07;98261.84;;;16.80
11926;BMP180;6022;48.768;18.608;2022-09-09T05:06:36;98263.59;;;16.89
11926;BMP180;6022;48.768;18.608;2022-09-09T05:09:04;98262.50;;;16.92
11926;BMP180;6022;48.768;18.608;2022-09-09T05:11:33;98256.88;;;16.88
11926;BMP180;6022;48.768;18.608;2022-09-09T05:14:04;98268.59;;;16.91
11926;BMP180;6022;48.768;18.608;2022-09-09T05:16:32;98265.47;;;16.87
11926;BMP180;6022;48.768;18.608;2022-09-09T05:18:59;98260.91;;;16.91
11926;BMP180;6022;48.768;18.608;2022-09-09T05:21:26;98264.75;;;17.04
11926;BMP180;6022;48.768;18.608;2022-09-09T05:23:55;98266.44;;;17.76
11926;BMP180;6022;48.768;18.608;2022-09-09T05:26:23;98272.16;;;18.14
11926;BMP180;6022;48.768;18.608;2022-09-09T05:28:51;98268.69;;;18.05
11926;BMP180;6022;48.768;18.608;2022-09-09T05:31:19;98268.31;;;18.52
11926;BMP180;6022;48.768;18.608;2022-09-09T05:33:48;98262.19;;;19.62
11926;BMP180;6022;48.768;18.608;2022-09-09T05:36:19;98259.56;;;19.95
11926;BMP180;6022;48.768;18.608;2022-09-09T05:38:47;98253.47;;;19.47
11926;BMP180;6022;48.768;18.608;2022-09-09T05:41:15;98263.28;;;19.51
11926;BMP180;6022;48.768;18.608;2022-09-09T05:43:44;98272.13;;;19.57
11926;BMP180;6022;48.768;18.608;2022-09-09T05:46:23;98267.16;;;20.75
11926;BMP180;6022;48.768;18.608;2022-09-09T05:48:53;98261.78;;;22.37
11926;BMP180;6022;48.768;18.608;2022-09-09T05:51:23;98257.59;;;23.23
11926;BMP180;6022;48.768;18.608;2022-09-09T05:53:52;98258.28;;;25.05
11926;BMP180;6022;48.768;18.608;2022-09-09T05:56:24;98263.28;;;26.84
11926;BMP180;6022;48.768;18.608;2022-09-09T05:58:53;98247.19;;;27.00
11926;BMP180;6022;48.768;18.608;2022-09-09T06:01:26;98241.88;;;28.25
11926;BMP180;6022;48.768;18.608;2022-09-09T06:03:54;98237.34;;;28.45
11926;BMP180;6022;48.768;18.608;2022-09-09T06:06:26;98230.81;;;26.23
11926;BMP180;6022;48.768;18.608;2022-09-09T06:08:56;98233.44;;;25.70
11926;BMP180;6022;48.768;18.608;2022-09-09T06:11:30;98233.72;;;25.87
11926;BMP180;6022;48.768;18.608;2022-09-09T06:13:58;98229.16;;;27.18
11926;BMP180;6022;48.768;18.608;2022-09-09T06:16:29;98219.59;;;28.95
11926;BMP180;6022;48.768;18.608;2022-09-09T06:18:57;98216.84;;;29.08
11926;BMP180;6022;48.768;18.608;2022-09-09T06:21:30;98224.16;;;28.58
11926;BMP180;6022;48.768;18.608;2022-09-09T06:23:59;98221.13;;;29.03
11926;BMP180;6022;48.768;18.608;2022-09-09T06:26:38;98219.22;;;28.74
11926;BMP180;6022;48.768;18.608;2022-09-09T06:29:08;98224.44;;;27.45
11926;BMP180;6022;48.768;18.608;2022-09-09T06:31:37;98225.94;;;28.09
11926;BMP180;6022;48.768;18.608;2022-09-09T06:34:07;98213.44;;;28.17
11926;BMP180;6022;48.768;18.608;2022-09-09T06:36:38;98230.06;;;27.86
11926;BMP180;6022;48.768;18.608;2022-09-09T06:39:06;98232.88;;;28.21
11926;BMP180;6022;48.768;18.608;2022-09-09T06:41:40;98233.31;;;29.33
11926;BMP180;6022;48.768;18.608;2022-09-09T06:44:09;98233.91;;;31.42
11926;BMP180;6022;48.768;18.608;2022-09-09T06:46:38;98241.41;;;32.33
11926;BMP180;6022;48.768;18.608;2022-09-09T06:49:08;98231.50;;;31.18
11926;BMP180;6022;48.768;18.608;2022-09-09T06:51:38;98235.69;;;30.40
11926;BMP180;6022;48.768;18.608;2022-09-09T06:54:11;98236.22;;;30.82
11926;BMP180;6022;48.768;18.608;2022-09-09T06:56:41;98228.44;;;30.12
11926;BMP180;6022;48.768;18.608;2022-09-09T06:59:11;98228.25;;;30.25
11926;BMP180;6022;48.768;18.608;2022-09-09T07:01:41;98233.91;;;30.63
11926;BMP180;6022;48.768;18.608;2022-09-09T07:04:11;98228.56;;;30.69
11926;BMP180;6022;48.768;18.608;2022-09-09T07:06:43;98228.22;;;31.73
11926;BMP180;6022;48.768;18.608;2022-09-09T07:09:15;98232.59;;;32.88
11926;BMP180;6022;48.768;18.608;2022-09-09T07:11:46;98232.38;;;32.89
11926;BMP180;6022;48.768;18.608;2022-09-09T07:14:14;98234.59;;;32.65
11926;BMP180;6022;48.768;18.608;2022-09-09T07:16:43;98225.72;;;33.62
11926;BMP180;6022;48.768;18.608;2022-09-09T07:19:12;98222.88;;;33.90
11926;BMP180;6022;48.768;18.608;2022-09-09T07:21:41;98238.16;;;35.17
11926;BMP180;6022;48.768;18.608;2022-09-09T07:24:09;98233.28;;;35.40
11926;BMP180;6022;48.768;18.608;2022-09-09T07:26:38;98241.78;;;35.47
11926;BMP180;6022;48.768;18.608;2022-09-09T07:29:06;98243.38;;;35.58
11926;BMP180;6022;48.768;18.608;2022-09-09T07:31:38;98243.53;;;36.02
11926;BMP180;6022;48.768;18.608;2022-09-09T07:34:07;98248.88;;;36.17
11926;BMP180;6022;48.768;18.608;2022-09-09T07:36:39;98234.34;;;36.84
11926;BMP180;6022;48.768;18.608;2022-09-09T07:39:11;98237.25;;;36.97
11926;BMP180;6022;48.768;18.608;2022-09-09T07:42:02;98238.00;;;37.12
11926;BMP180;6022;48.768;18.608;2022-09-09T07:44:31;98232.81;;;37.60
11926;BMP180;6022;48.768;18.608;2022-09-09T07:47:02;98229.94;;;37.47
11926;BMP180;6022;48.768;18.608;2022-09-09T07:49:30;98221.38;;;39.07
11926;BMP180;6022;48.768;18.608;2022-09-09T07:51:59;98229.94;;;39.27
11926;BMP180;6022;48.768;18.608;2022-09-09T07:54:26;98218.66;;;38.89
11926;BMP180;6022;48.768;18.608;2022-09-09T07:56:53;98224.53;;;38.86
11926;BMP180;6022;48.768;18.608;2022-09-09T07:59:21;98212.09;;;39.51
11926;BMP180;6022;48.768;18.608;2022-09-09T08:01:51;98206.88;;;40.37
11926;BMP180;6022;48.768;18.608;2022-09-09T08:04:23;98203.25;;;40.15
11926;BMP180;6022;48.768;18.608;2022-09-09T08:06:53;98202.09;;;39.25
11926;BMP180;6022;48.768;18.608;2022-09-09T08:09:21;98195.03;;;38.59
11926;BMP180;6022;48.768;18.608;2022-09-09T08:11:52;98198.28;;;37.75
11926;BMP180;6022;48.768;18.608;2022-09-09T08:14:19;98198.16;;;38.33
11926;BMP180;6022;48.768;18.608;2022-09-09T08:16:49;98205.84;;;39.19
11926;BMP180;6022;48.768;18.608;2022-09-09T08:19:16;98197.09;;;38.01
11926;BMP180;6022;48.768;18.608;2022-09-09T08:21:45;98197.00;;;37.73
11926;BMP180;6022;48.768;18.608;2022-09-09T08:24:13;98200.41;;;37.78
11926;BMP180;6022;48.768;18.608;2022-09-09T08:26:45;98199.84;;;37.28
11926;BMP180;6022;48.768;18.608;2022-09-09T08:29:14;98202.75;;;37.27
11926;BMP180;6022;48.768;18.608;2022-09-09T08:31:50;98195.13;;;37.78
11926;BMP180;6022;48.768;18.608;2022-09-09T08:34:19;98199.69;;;39.00
11926;BMP180;6022;48.768;18.608;2022-09-09T08:36:49;98196.81;;;39.20
11926;BMP180;6022;48.768;18.608;2022-09-09T08:39:19;98200.97;;;39.72
11926;BMP180;6022;48.768;18.608;2022-09-09T08:42:19;98203.63;;;40.58
11926;BMP180;6022;48.768;18.608;2022-09-09T08:51:02;98206.59;;;36.57
11926;BMP180;6022;48.768;18.608;2022-09-09T08:53:42;98205.38;;;37.32
11926;BMP180;6022;48.768;18.608;2022-09-09T08:56:16;98209.94;;;37.79
11926;BMP180;6022;48.768;18.608;2022-09-09T08:58:49;98202.13;;;37.59
11926;BMP180;6022;48.768;18.608;2022-09-09T09:01:48;98195.94;;;37.74
11926;BMP180;6022;48.768;18.608;2022-09-09T09:04:56;98192.84;;;38.05
11926;BMP180;6022;48.768;18.608;2022-09-09T09:10:47;98193.19;;;37.41
11926;BMP180;6022;48.768;18.608;2022-09-09T09:13:26;98184.38;;;36.33
11926;BMP180;6022;48.768;18.608;2022-09-09T09:16:10;98177.69;;;36.95
11926;BMP180;6022;48.768;18.608;2022-09-09T09:18:44;98182.72;;;37.06
11926;BMP180;6022;48.768;18.608;2022-09-09T09:24:01;98182.19;;;37.09
11926;BMP180;6022;48.768;18.608;2022-09-09T09:26:35;98173.69;;;37.02
11926;BMP180;6022;48.768;18.608;2022-09-09T09:29:13;98184.16;;;37.51
11926;BMP180;6022;48.768;18.608;2022-09-09T09:31:55;98188.28;;;37.72
11926;BMP180;6022;48.768;18.608;2022-09-09T09:34:24;98194.59;;;37.76
11926;BMP180;6022;48.768;18.608;2022-09-09T09:36:57;98182.69;;;37.74
11926;BMP180;6022;48.768;18.608;2022-09-09T09:39:29;98187.63;;;37.37
11926;BMP180;6022;48.768;18.608;2022-09-09T09:42:17;98192.72;;;37.29
11926;BMP180;6022;48.768;18.608;2022-09-09T09:44:49;98189.38;;;36.79
11926;BMP180;6022;48.768;18.608;2022-09-09T09:47:22;98192.22;;;37.17
11926;BMP180;6022;48.768;18.608;2022-09-09T09:49:59;98196.00;;;36.81
11926;BMP180;6022;48.768;18.608;2022-09-09T09:52:31;98201.84;;;36.64
11926;BMP180;6022;48.768;18.608;2022-09-09T09:55:03;98208.97;;;36.38
11926;BMP180;6022;48.768;18.608;2022-09-09T09:57:34;98202.09;;;36.23
11926;BMP180;6022;48.768;18.608;2022-09-09T10:02:46;98203.88;;;35.97
11926;BMP180;6022;48.768;18.608;2022-09-09T10:05:24;98203.34;;;35.95
11926;BMP180;6022;48.768;18.608;2022-09-09T10:08:15;98201.03;;;36.63
11926;BMP180;6022;48.768;18.608;2022-09-09T10:10:49;98199.69;;;36.61
11926;BMP180;6022;48.768;18.608;2022-09-09T10:13:28;98199.22;;;36.64
11926;BMP180;6022;48.768;18.608;2022-09-09T10:16:46;98193.94;;;35.34
11926;BMP180;6022;48.768;18.608;2022-09-09T10:19:00;98186.63;;;35.55
11926;BMP180;6022;48.768;18.608;2022-09-09T10:30:21;98193.88;;;35.94
11926;BMP180;6022;48.768;18.608;2022-09-09T10:33:13;98191.00;;;36.30
11926;BMP180;6022;48.768;18.608;2022-09-09T10:38:42;98184.84;;;35.15
11926;BMP180;6022;48.768;18.608;2022-09-09T10:41:44;98184.72;;;34.23
11926;BMP180;6022;48.768;18.608;2022-09-09T10:47:26;98176.34;;;34.57
11926;BMP180;6022;48.768;18.608;2022-09-09T10:53:58;98182.13;;;35.56
11926;BMP180;6022;48.768;18.608;2022-09-09T10:56:33;98181.38;;;35.09
11926;BMP180;6022;48.768;18.608;2022-09-09T10:59:33;98182.59;;;34.82
11926;BMP180;6022;48.768;18.608;2022-09-09T11:02:27;98184.53;;;34.30
11926;BMP180;6022;48.768;18.608;2022-09-09T11:19:34;98182.16;;;35.71
11926;BMP180;6022;48.768;18.608;2022-09-09T11:22:35;98185.75;;;35.35
11926;BMP180;6022;48.768;18.608;2022-09-09T11:25:08;98193.00;;;35.09
11926;BMP180;6022;48.768;18.608;2022-09-09T11:36:43;98177.53;;;33.61
11926;BMP180;6022;48.768;18.608;2022-09-09T11:39:35;98175.25;;;33.22
11926;BMP180;6022;48.768;18.608;2022-09-09T11:44:41;98169.06;;;32.09
11926;BMP180;6022;48.768;18.608;2022-09-09T11:47:28;98169.94;;;32.31
11926;BMP180;6022;48.768;18.608;2022-09-09T11:52:45;98174.06;;;31.95
11926;BMP180;6022;48.768;18.608;2022-09-09T11:55:28;98170.81;;;32.04
11926;BMP180;6022;48.768;18.608;2022-09-09T11:58:16;98165.19;;;32.44
11926;BMP180;6022;48.768;18.608;2022-09-09T12:00:47;98165.41;;;32.27
11926;BMP180;6022;48.768;18.608;2022-09-09T12:03:44;98160.53;;;32.02
11926;BMP180;6022;48.768;18.608;2022-09-09T12:06:26;98167.72;;;32.07
11926;BMP180;6022;48.768;18.608;2022-09-09T12:09:06;98162.13;;;32.03
11926;BMP180;6022;48.768;18.608;2022-09-09T12:11:35;98162.22;;;32.08
11926;BMP180;6022;48.768;18.608;2022-09-09T12:14:02;98163.91;;;32.14
11926;BMP180;6022;48.768;18.608;2022-09-09T12:16:36;98161.13;;;32.04
11926;BMP180;6022;48.768;18.608;2022-09-09T12:19:22;98163.75;;;32.37
11926;BMP180;6022;48.768;18.608;2022-09-09T12:24:49;98155.78;;;32.48
11926;BMP180;6022;48.768;18.608;2022-09-09T12:27:28;98151.53;;;32.64
11926;BMP180;6022;48.768;18.608;2022-09-09T12:30:15;98159.28;;;32.54
11926;BMP180;6022;48.768;18.608;2022-09-09T12:32:42;98156.41;;;32.23
11926;BMP180;6022;48.768;18.608;2022-09-09T12:35:20;98152.13;;;31.73
11926;BMP180;6022;48.768;18.608;2022-09-09T12:38:22;98158.69;;;31.59
11926;BMP180;6022;48.768;18.608;2022-09-09T12:40:58;98165.47;;;31.44
11926;BMP180;6022;48.768;18.608;2022-09-09T12:43:27;98152.69;;;31.08
11926;BMP180;6022;48.768;18.608;2022-09-09T12:46:03;98151.81;;;30.69
11926;BMP180;6022;48.768;18.608;2022-09-09T12:48:40;98143.50;;;30.60
11926;BMP180;6022;48.768;18.608;2022-09-09T12:51:30;98140.06;;;30.71
11926;BMP180;6022;48.768;18.608;2022-09-09T12:53:59;98143.38;;;30.78
11926;BMP180;6022;48.768;18.608;2022-09-09T12:56:32;98133.59;;;30.85
11926;BMP180;6022;48.768;18.608;2022-09-09T12:59:00;98139.97;;;30.89
11926;BMP180;6022;48.768;18.608;2022-09-09T13:01:31;98138.47;;;30.93
11926;BMP180;6022;48.768;18.608;2022-09-09T13:04:00;98132.75;;;30.73
11926;BMP180;6022;48.768;18.608;2022-09-09T13:06:32;98132.69;;;30.80
11926;BMP180;6022;48.768;18.608;2022-09-09T13:09:02;98127.63;;;31.01
11926;BMP180;6022;48.768;18.608;2022-09-09T13:11:44;98128.81;;;31.21
11926;BMP180;6022;48.768;18.608;2022-09-09T13:14:29;98117.81;;;31.08
11926;BMP180;6022;48.768;18.608;2022-09-09T13:17:01;98114.81;;;31.16
11926;BMP180;6022;48.768;18.608;2022-09-09T13:19:37;98114.19;;;31.36
11926;BMP180;6022;48.768;18.608;2022-09-09T13:22:27;98118.56;;;31.20
11926;BMP180;6022;48.768;18.608;2022-09-09T13:25:22;98106.13;;;30.65
11926;BMP180;6022;48.768;18.608;2022-09-09T13:28:01;98104.78;;;30.40
11926;BMP180;6022;48.768;18.608;2022-09-09T13:30:35;98103.84;;;30.23
11926;BMP180;6022;48.768;18.608;2022-09-09T13:35:33;98099.41;;;29.60
11926;BMP180;6022;48.768;18.608;2022-09-09T13:38:08;98091.97;;;29.46
11926;BMP180;6022;48.768;18.608;2022-09-09T13:40:38;98094.13;;;29.20
11926;BMP180;6022;48.768;18.608;2022-09-09T13:43:05;98088.81;;;29.08
11926;BMP180;6022;48.768;18.608;2022-09-09T13:46:05;98092.25;;;28.91
11926;BMP180;6022;48.768;18.608;2022-09-09T13:49:21;98089.34;;;28.99
11926;BMP180;6022;48.768;18.608;2022-09-09T13:52:13;98084.72;;;28.83
11926;BMP180;6022;48.768;18.608;2022-09-09T13:54:41;98075.53;;;28.81
11926;BMP180;6022;48.768;18.608;2022-09-09T13:59:46;98061.97;;;28.72
11926;BMP180;6022;48.768;18.608;2022-09-09T14:02:31;98070.38;;;28.74
11926;BMP180;6022;48.768;18.608;2022-09-09T14:04:58;98079.00;;;28.92
11926;BMP180;6022;48.768;18.608;2022-09-09T14:07:26;98075.06;;;28.84
11926;BMP180;6022;48.768;18.608;2022-09-09T14:09:54;98080.31;;;28.66
11926;BMP180;6022;48.768;18.608;2022-09-09T14:12:22;98076.84;;;28.72
11926;BMP180;6022;48.768;18.608;2022-09-09T14:14:49;98071.69;;;28.83
11926;BMP180;6022;48.768;18.608;2022-09-09T14:17:17;98076.31;;;28.81
11926;BMP180;6022;48.768;18.608;2022-09-09T14:19:44;98070.66;;;28.84
11926;BMP180;6022;48.768;18.608;2022-09-09T14:22:13;98081.91;;;28.85
11926;BMP180;6022;48.768;18.608;2022-09-09T14:24:41;98077.06;;;28.88
11926;BMP180;6022;48.768;18.608;2022-09-09T14:27:08;98082.97;;;28.95
11926;BMP180;6022;48.768;18.608;2022-09-09T14:29:35;98086.78;;;28.81
11926;BMP180;6022;48.768;18.608;2022-09-09T14:32:03;98091.41;;;28.61
11926;BMP180;6022;48.768;18.608;2022-09-09T14:34:35;98092.44;;;28.60
11926;BMP180;6022;48.768;18.608;2022-09-09T14:37:02;98089.72;;;28.67
11926;BMP180;6022;48.768;18.608;2022-09-09T14:39:29;98084.78;;;28.77
11926;BMP180;6022;48.768;18.608;2022-09-09T14:41:57;98089.31;;;28.70
11926;BMP180;6022;48.768;18.608;2022-09-09T14:44:25;98085.38;;;28.61
11926;BMP180;6022;48.768;18.608;2022-09-09T14:46:52;98083.47;;;28.50
11926;BMP180;6022;48.768;18.608;2022-09-09T14:49:21;98078.75;;;28.41
11926;BMP180;6022;48.768;18.608;2022-09-09T14:51:48;98078.81;;;28.34
11926;BMP180;6022;48.768;18.608;2022-09-09T14:54:15;98078.88;;;28.28
11926;BMP180;6022;48.768;18.608;2022-09-09T14:56:43;98074.75;;;28.38
11926;BMP180;6022;48.768;18.608;2022-09-09T14:59:11;98072.44;;;28.48
11926;BMP180;6022;48.768;18.608;2022-09-09T15:01:40;98078.25;;;28.50
11926;BMP180;6022;48.768;18.608;2022-09-09T15:04:10;98073.88;;;28.44
11926;BMP180;6022;48.768;18.608;2022-09-09T15:06:38;98062.00;;;28.30
11926;BMP180;6022;48.768;18.608;2022-09-09T15:09:06;98071.13;;;28.39
11926;BMP180;6022;48.768;18.608;2022-09-09T15:11:36;98072.72;;;28.40
11926;BMP180;6022;48.768;18.608;2022-09-09T15:14:07;98073.84;;;28.09
11926;BMP180;6022;48.768;18.608;2022-09-09T15:16:35;98080.16;;;27.95
11926;BMP180;6022;48.768;18.608;2022-09-09T15:19:03;98079.56;;;27.93
11926;BMP180;6022;48.768;18.608;2022-09-09T15:21:34;98076.69;;;27.76
11926;BMP180;6022;48.768;18.608;2022-09-09T15:24:02;98076.50;;;27.72
11926;BMP180;6022;48.768;18.608;2022-09-09T15:26:29;98071.75;;;27.69
11926;BMP180;6022;48.768;18.608;2022-09-09T15:28:57;98075.44;;;27.55
11926;BMP180;6022;48.768;18.608;2022-09-09T15:31:29;98080.34;;;27.38
11926;BMP180;6022;48.768;18.608;2022-09-09T15:34:00;98081.41;;;27.25
11926;BMP180;6022;48.768;18.608;2022-09-09T15:36:43;98084.06;;;27.18
11926;BMP180;6022;48.768;18.608;2022-09-09T15:39:13;98076.81;;;26.83
11926;BMP180;6022;48.768;18.608;2022-09-09T15:41:47;98074.22;;;26.70
11926;BMP180;6022;48.768;18.608;2022-09-09T15:44:15;98069.19;;;26.69
11926;BMP180;6022;48.768;18.608;2022-09-09T15:46:51;98068.66;;;26.60
11926;BMP180;6022;48.768;18.608;2022-09-09T15:49:23;98072.03;;;26.61
11926;BMP180;6022;48.768;18.608;2022-09-09T15:51:57;98083.47;;;26.60
11926;BMP180;6022;48.768;18.608;2022-09-09T15:54:26;98082.25;;;26.62
11926;BMP180;6022;48.768;18.608;2022-09-09T15:56:57;98066.00;;;26.67
11926;BMP180;6022;48.768;18.608;2022-09-09T15:59:27;98079.44;;;26.64
11926;BMP180;6022;48.768;18.608;2022-09-09T16:01:58;98082.44;;;26.61
11926;BMP180;6022;48.768;18.608;2022-09-09T16:04:28;98086.28;;;26.46
11926;BMP180;6022;48.768;18.608;2022-09-09T16:07:00;98094.91;;;26.40
11926;BMP180;6022;48.768;18.608;2022-09-09T16:09:29;98086.28;;;26.20
11926;BMP180;6022;48.768;18.608;2022-09-09T16:11:59;98089.31;;;26.11
11926;BMP180;6022;48.768;18.608;2022-09-09T16:14:28;98081.91;;;26.01
11926;BMP180;6022;48.768;18.608;2022-09-09T16:16:56;98082.75;;;25.89
11926;BMP180;6022;48.768;18.608;2022-09-09T16:19:25;98078.31;;;25.77
11926;BMP180;6022;48.768;18.608;2022-09-09T16:21:53;98086.91;;;25.71
11926;BMP180;6022;48.768;18.608;2022-09-09T16:24:21;98087.31;;;25.61
11926;BMP180;6022;48.768;18.608;2022-09-09T16:26:50;98084.69;;;25.55
11926;BMP180;6022;48.768;18.608;2022-09-09T16:29:19;98077.47;;;25.50
11926;BMP180;6022;48.768;18.608;2022-09-09T16:31:46;98083.44;;;25.51
11926;BMP180;6022;48.768;18.608;2022-09-09T16:34:17;98084.25;;;25.45
11926;BMP180;6022;48.768;18.608;2022-09-09T16:36:47;98089.03;;;25.35
11926;BMP180;6022;48.768;18.608;2022-09-09T16:39:18;98089.59;;;25.24
11926;BMP180;6022;48.768;18.608;2022-09-09T16:41:47;98088.38;;;25.14
11926;BMP180;6022;48.768;18.608;2022-09-09T16:44:17;98075.38;;;25.07
11926;BMP180;6022;48.768;18.608;2022-09-09T16:46:48;98075.34;;;25.01
11926;BMP180;6022;48.768;18.608;2022-09-09T16:49:25;98073.91;;;24.92
11926;BMP180;6022;48.768;18.608;2022-09-09T16:51:56;98082.63;;;24.85
11926;BMP180;6022;48.768;18.608;2022-09-09T16:54:24;98075.63;;;24.79